Terminal Aerodrome Forecast
Issued by NWS Burlington, VT

Current Version | Previous Version | Text Only | Print | Product List | Glossary On
Versions: 1 2 3 4 5 6 7 8 9 10 11 12 13 14 15 16 17
000 FTUS41 KBTV 012300 TAFBTV TAF KBTV 012328Z 0200/0224 18003KT P6SM FEW040 FM020800 18006KT P6SM SCT060 BKN100 FM021300 19010KT P6SM SCT040 SCT100 FM021900 20010KT P6SM VCSH BKN040=

USA.gov is the U.S. government's official web portal to all federal, state and local government web resources and services.